createdAt,value
2023-02-06T00:02:24.698Z,13.23
2023-02-06T00:07:18.062Z,19.00
2023-02-06T00:12:14.002Z,18.87
2023-02-06T00:17:07.347Z,18.33
2023-02-06T00:22:00.561Z,8.60
2023-02-06T00:26:56.534Z,17.17
2023-02-06T00:31:52.124Z,12.60
2023-02-06T00:36:45.312Z,11.67
2023-02-06T00:41:38.693Z,11.27
2023-02-06T00:46:32.833Z,8.03
2023-02-06T00:51:27.924Z,9.13
2023-02-06T00:56:21.108Z,11.17
2023-02-06T01:01:14.274Z,10.47
2023-02-06T01:06:07.557Z,11.23
2023-02-06T01:11:02.189Z,11.40
2023-02-06T01:15:55.431Z,9.80
2023-02-06T01:20:48.729Z,9.33
2023-02-06T01:25:41.845Z,12.97
2023-02-06T01:30:36.701Z,12.77
2023-02-06T01:35:30.075Z,15.37
2023-02-06T01:40:23.354Z,16.77
2023-02-06T01:45:45.769Z,13.87
2023-02-06T01:50:42.959Z,12.03
2023-02-06T01:55:39.133Z,13.83
2023-02-06T02:00:32.435Z,18.40
2023-02-06T02:05:27.101Z,20.87
2023-02-06T02:10:20.600Z,14.60
2023-02-06T02:15:14.489Z,14.77
2023-02-06T02:20:45.552Z,13.90
2023-02-06T02:26:26.596Z,15.47
2023-02-06T02:32:06.514Z,12.27
2023-02-06T02:37:11.678Z,13.27
2023-02-06T02:42:12.795Z,15.77
2023-02-06T02:47:09.412Z,14.10
2023-02-06T02:52:04.869Z,12.63
2023-02-06T02:57:05.245Z,13.30
2023-02-06T03:02:01.969Z,17.00
2023-02-06T03:07:18.942Z,17.47
2023-02-06T03:12:19.025Z,14.33
2023-02-06T03:17:19.686Z,14.38
2023-02-06T03:22:16.116Z,13.77
2023-02-06T03:27:12.440Z,12.67
2023-02-06T03:32:08.848Z,16.50
2023-02-06T03:37:02.678Z,13.93
2023-02-06T03:42:01.191Z,15.60
2023-02-06T03:46:57.227Z,13.73
2023-02-06T03:51:57.059Z,13.43
2023-02-06T03:57:07.428Z,12.32
2023-02-06T04:02:04.164Z,11.73
2023-02-06T04:06:58.235Z,12.20
2023-02-06T04:11:51.586Z,12.60
2023-02-06T04:16:46.285Z,36.43
2023-02-06T04:21:39.850Z,67.90
2023-02-06T04:26:33.121Z,19.03
2023-02-06T04:31:26.265Z,15.30
2023-02-06T04:36:20.945Z,14.87
2023-02-06T04:41:14.285Z,19.63
2023-02-06T04:46:07.486Z,15.50
2023-02-06T04:51:00.792Z,22.07
2023-02-06T04:55:58.542Z,18.30
2023-02-06T05:00:51.758Z,22.77
2023-02-06T05:05:44.885Z,18.53
2023-02-06T05:10:38.106Z,16.77
2023-02-06T05:15:32.661Z,24.40
2023-02-06T05:20:25.853Z,40.70
2023-02-06T05:25:19.319Z,28.13
2023-02-06T05:30:15.345Z,22.13
2023-02-06T05:35:10.623Z,20.57
2023-02-06T05:40:03.936Z,19.33
2023-02-06T05:44:57.118Z,23.57
2023-02-06T05:49:50.584Z,24.93
2023-02-06T05:54:45.910Z,46.90
2023-02-06T05:59:39.359Z,39.03
2023-02-06T06:04:32.668Z,40.37
2023-02-06T06:09:26.096Z,48.83
2023-02-06T06:14:20.819Z,27.13
2023-02-06T06:19:14.139Z,27.40
2023-02-06T06:24:08.131Z,27.20
2023-02-06T06:29:01.551Z,20.87
2023-02-06T06:33:56.230Z,18.43
2023-02-06T06:38:49.710Z,17.13
2023-02-06T06:43:45.505Z,26.17
2023-02-06T06:48:38.981Z,23.80
2023-02-06T06:53:33.992Z,30.67
2023-02-06T06:58:27.590Z,21.73
2023-02-06T07:03:20.953Z,31.83
2023-02-06T07:08:14.591Z,43.60
2023-02-06T07:13:09.526Z,38.60
2023-02-06T07:18:02.926Z,22.77
2023-02-06T07:22:56.278Z,41.37
2023-02-06T07:27:49.635Z,35.37
2023-02-06T07:32:44.194Z,49.30
2023-02-06T07:37:37.429Z,56.47
2023-02-06T07:42:30.852Z,44.83
2023-02-06T07:47:30.927Z,45.95
2023-02-06T07:52:25.588Z,45.70
2023-02-06T07:57:19.139Z,52.60
2023-02-06T08:02:13.272Z,35.63
2023-02-06T08:07:11.056Z,36.63
2023-02-06T08:12:05.870Z,29.53
2023-02-06T08:17:00.308Z,28.03
2023-02-06T08:21:53.589Z,20.50
2023-02-06T08:26:46.832Z,22.33
2023-02-06T08:31:43.270Z,14.53
2023-02-06T08:36:36.717Z,14.63
2023-02-06T08:41:32.308Z,17.77
2023-02-06T08:46:28.903Z,17.03
2023-02-06T08:51:28.030Z,16.77
2023-02-06T08:56:21.469Z,19.27
2023-02-06T09:01:16.826Z,20.87
2023-02-06T09:06:11.096Z,16.70
2023-02-06T09:11:17.687Z,24.70
2023-02-06T09:16:13.202Z,29.33
2023-02-06T09:21:10.247Z,22.10
2023-02-06T09:26:03.711Z,18.90
2023-02-06T09:30:58.887Z,22.83
2023-02-06T09:36:04.333Z,27.80
2023-02-06T09:40:58.438Z,93.47
2023-02-06T09:45:58.861Z,18.27
2023-02-06T09:51:00.707Z,17.55
2023-02-06T09:55:59.599Z,16.93
2023-02-06T10:00:59.176Z,17.23
2023-02-06T10:06:03.805Z,17.57
2023-02-06T10:10:59.745Z,35.07
2023-02-06T10:15:57.258Z,22.00
2023-02-06T10:20:55.908Z,17.87
2023-02-06T10:25:54.729Z,17.93
2023-02-06T10:31:05.980Z,14.30
2023-02-06T10:36:09.066Z,18.80
2023-02-06T10:41:07.677Z,18.73
2023-02-06T10:46:13.085Z,14.87
2023-02-06T10:51:18.976Z,15.17
2023-02-06T10:56:15.301Z,19.23
2023-02-06T11:01:25.140Z,15.47
2023-02-06T11:06:23.846Z,20.48
2023-02-06T11:11:24.208Z,17.63
2023-02-06T11:16:23.917Z,16.30
2023-02-06T11:21:37.917Z,20.87
2023-02-06T11:26:33.820Z,18.47
2023-02-06T11:31:42.865Z,11.10
2023-02-06T11:36:39.406Z,13.37
2023-02-06T11:41:34.754Z,10.90
2023-02-06T11:46:29.649Z,12.17
2023-02-06T11:51:24.076Z,11.37
2023-02-06T11:56:20.809Z,15.83
2023-02-06T12:01:21.373Z,11.17
2023-02-06T12:06:18.807Z,11.90
2023-02-06T12:11:17.819Z,13.13
2023-02-06T12:16:17.590Z,12.63
2023-02-06T12:21:17.476Z,9.23
2023-02-06T12:26:15.324Z,9.83
2023-02-06T12:31:15.306Z,16.37
2023-02-06T12:36:17.137Z,14.63
2023-02-06T12:41:44.243Z,10.83
2023-02-06T12:46:38.006Z,13.30
2023-02-06T12:51:37.453Z,9.40
2023-02-06T12:56:36.923Z,21.30
2023-02-06T13:01:43.846Z,17.07
2023-02-06T13:06:47.525Z,21.37
2023-02-06T13:11:42.768Z,14.00
2023-02-06T13:16:46.379Z,15.60
2023-02-06T13:21:41.230Z,20.10
2023-02-06T13:27:11.987Z,17.37
2023-02-06T13:32:41.150Z,19.40
2023-02-06T13:37:37.915Z,14.33
2023-02-06T13:42:40.484Z,17.03
2023-02-06T13:48:05.379Z,20.87
2023-02-06T13:53:18.248Z,15.93
2023-02-06T13:58:36.548Z,15.87
2023-02-06T14:03:32.793Z,19.20
2023-02-06T14:08:39.314Z,21.73
2023-02-06T14:13:44.414Z,19.73
2023-02-06T14:18:47.969Z,14.80
2023-02-06T14:23:59.185Z,17.67
2023-02-06T14:29:02.865Z,15.00
2023-02-06T14:34:08.182Z,13.50
2023-02-06T14:39:31.182Z,26.80
2023-02-06T14:44:31.782Z,15.43
2023-02-06T14:49:35.253Z,14.20
2023-02-06T14:54:32.912Z,14.97
2023-02-06T14:59:26.468Z,13.63
2023-02-06T15:04:23.127Z,15.33
2023-02-06T15:09:32.529Z,13.50
2023-02-06T15:14:27.719Z,15.60
2023-02-06T15:19:24.255Z,16.53
2023-02-06T15:24:49.878Z,15.90
2023-02-06T15:29:51.092Z,31.03
2023-02-06T15:34:47.771Z,25.77
2023-02-06T15:39:41.189Z,17.90
2023-02-06T15:44:38.579Z,21.70
2023-02-06T15:49:37.822Z,23.10
2023-02-06T15:54:31.970Z,22.80
2023-02-06T15:59:27.105Z,21.07
2023-02-06T16:04:24.519Z,20.70
2023-02-06T16:09:22.142Z,21.20
2023-02-06T16:14:21.600Z,24.63
2023-02-06T16:19:38.626Z,68.17
2023-02-06T16:24:32.020Z,46.93
2023-02-06T16:29:28.158Z,27.23
2023-02-06T16:34:23.618Z,24.70
2023-02-06T16:39:18.389Z,22.27
2023-02-06T16:44:16.353Z,26.20
2023-02-06T16:49:17.291Z,27.70
2023-02-06T16:54:19.984Z,30.13
2023-02-06T16:59:14.791Z,26.23
2023-02-06T17:04:08.378Z,29.00
2023-02-06T17:09:07.752Z,24.27
2023-02-06T17:14:01.440Z,25.60
2023-02-06T17:18:58.419Z,31.33
2023-02-06T17:23:52.748Z,26.37
2023-02-06T17:28:50.026Z,27.70
2023-02-06T17:33:43.496Z,31.17
2023-02-06T17:38:38.433Z,27.47
2023-02-06T17:43:34.606Z,31.17
2023-02-06T17:48:29.935Z,38.47
2023-02-06T17:53:23.793Z,39.33
2023-02-06T17:58:22.807Z,36.67
2023-02-06T18:03:18.439Z,31.67
2023-02-06T18:08:12.525Z,28.93
2023-02-06T18:13:06.094Z,34.23
2023-02-06T18:18:01.878Z,34.80
2023-02-06T18:22:55.806Z,29.53
2023-02-06T18:27:49.318Z,24.70
2023-02-06T18:32:42.980Z,27.00
2023-02-06T18:37:40.208Z,28.13
2023-02-06T18:42:51.028Z,41.00
2023-02-06T18:47:46.938Z,26.08
2023-02-06T18:52:41.922Z,28.97
2023-02-06T18:57:36.387Z,33.90
2023-02-06T19:02:30.000Z,41.80
2023-02-06T19:07:23.479Z,38.33
2023-02-06T19:12:18.394Z,46.47
2023-02-06T19:17:11.771Z,37.83
2023-02-06T19:22:14.608Z,43.77
2023-02-06T19:27:10.224Z,36.47
2023-02-06T19:32:06.787Z,42.43
2023-02-06T19:37:00.231Z,58.33
2023-02-06T19:41:53.683Z,34.10
2023-02-06T19:46:46.919Z,66.90
2023-02-06T19:51:44.876Z,34.13
2023-02-06T19:56:40.103Z,27.07
2023-02-06T20:01:43.308Z,34.60
2023-02-06T20:06:36.747Z,28.63
2023-02-06T20:11:33.103Z,36.77
2023-02-06T20:16:28.392Z,33.13
2023-02-06T20:21:26.783Z,24.53
2023-02-06T20:26:21.508Z,25.00
2023-02-06T20:31:17.051Z,30.20
2023-02-06T20:36:16.278Z,28.17
2023-02-06T20:41:11.620Z,27.50
2023-02-06T20:46:07.321Z,26.90
2023-02-06T20:51:03.581Z,25.00
2023-02-06T20:55:57.408Z,25.23
2023-02-06T21:00:50.840Z,22.93
2023-02-06T21:05:44.384Z,25.57
2023-02-06T21:10:39.404Z,22.63
2023-02-06T21:15:33.497Z,24.90
2023-02-06T21:20:26.868Z,22.13
2023-02-06T21:25:21.662Z,21.60
2023-02-06T21:30:16.648Z,25.53
2023-02-06T21:35:12.251Z,23.60
2023-02-06T21:40:10.367Z,23.33
2023-02-06T21:45:04.164Z,22.23
2023-02-06T21:49:59.635Z,25.87
2023-02-06T21:54:52.937Z,27.10
2023-02-06T21:59:46.319Z,27.20
2023-02-06T22:04:40.658Z,34.07
2023-02-06T22:09:35.406Z,29.37
2023-02-06T22:14:29.049Z,30.73
2023-02-06T22:19:22.470Z,32.20
2023-02-06T22:24:16.245Z,28.27
2023-02-06T22:29:17.162Z,27.77
2023-02-06T22:34:15.160Z,28.43
2023-02-06T22:39:12.613Z,27.40
2023-02-06T22:44:06.404Z,26.03
2023-02-06T22:49:05.527Z,27.47
2023-02-06T22:53:59.539Z,27.80
2023-02-06T22:58:53.151Z,26.30
2023-02-06T23:03:46.375Z,29.40
2023-02-06T23:08:42.164Z,26.83
2023-02-06T23:13:35.898Z,25.57
2023-02-06T23:18:29.804Z,27.43
2023-02-06T23:23:23.414Z,25.10
2023-02-06T23:28:18.108Z,26.70
2023-02-06T23:33:11.709Z,25.57
2023-02-06T23:38:05.648Z,23.93
2023-02-06T23:42:59.351Z,23.90
2023-02-06T23:47:55.102Z,26.20
2023-02-06T23:52:48.747Z,29.50
2023-02-06T23:57:42.848Z,25.43
